Time;durP1;ratioP1;P1;durP2;ratioP2;P2;SDS_P1;SDS_P2;PMS_P1;PMS_P2;Temp;Humidity;BMP_temperature;BMP_pressure;BME280_temperature;BME280_humidity;BME280_pressure;Samples;Min_cycle;Max_cycle;Signal;HPM_P1;HPM_P2
2022/12/12 00:00:01;;;;;;;44.15;19.88;;;;;;;-0.38;47.14;101251.53;7393119;19;20461;-61
2022/12/12 00:02:27;;;;;;;45.13;20.58;;;;;;;-0.57;47.69;101258.34;7394343;19;19998;-60
2022/12/12 00:04:56;;;;;;;43.70;20.95;;;;;;;-0.41;47.34;101252.06;7394773;19;19998;-61
2022/12/12 00:07:22;;;;;;;50.90;22.02;;;;;;;-0.34;47.08;101259.91;7391857;19;20025;-60
2022/12/12 00:09:47;;;;;;;46.33;21.33;;;;;;;-0.44;47.33;101265.97;7393445;19;20002;-61
2022/12/12 00:12:13;;;;;;;46.03;20.25;;;;;;;-0.41;47.05;101268.16;7394699;19;20057;-61
2022/12/12 00:14:39;;;;;;;47.25;20.48;;;;;;;-0.28;46.95;101272.25;7394798;19;20013;-61
2022/12/12 00:17:04;;;;;;;48.75;21.77;;;;;;;-0.21;46.92;101269.38;7393598;19;19999;-61
2022/12/12 00:19:30;;;;;;;47.17;20.52;;;;;;;-0.08;46.71;101257.41;7393345;19;20546;-61
2022/12/12 00:21:56;;;;;;;46.05;21.25;;;;;;;-0.26;47.16;101262.06;7394754;19;20002;-60
2022/12/12 00:24:21;;;;;;;47.00;20.60;;;;;;;-0.11;46.78;101250.66;7394346;19;20006;-61
2022/12/12 00:26:47;;;;;;;44.38;20.45;;;;;;;0.05;46.73;101253.47;7393427;19;20010;-61
2022/12/12 00:29:13;;;;;;;51.70;22.10;;;;;;;0.04;47.16;101251.84;7394063;19;20095;-61
2022/12/12 00:31:38;;;;;;;54.90;22.10;;;;;;;0.29;46.78;101256.53;7394445;19;20545;-60
2022/12/12 00:34:04;;;;;;;51.20;21.20;;;;;;;0.27;46.80;101259.47;7394185;19;20007;-60
2022/12/12 00:36:31;;;;;;;55.05;21.65;;;;;;;0.19;46.93;101262.66;7391479;19;20498;-60
2022/12/12 00:38:57;;;;;;;50.75;21.38;;;;;;;0.19;46.61;101262.66;7393311;19;20018;-60
2022/12/12 00:41:23;;;;;;;49.50;20.83;;;;;;;0.03;46.25;101263.63;7394597;19;19999;-60
2022/12/12 00:43:49;;;;;;;45.60;20.48;;;;;;;-0.08;46.12;101266.25;7391635;19;20354;-60
2022/12/12 00:46:17;;;;;;;43.05;19.38;;;;;;;-0.47;46.71;101271.84;7392909;19;20003;-60
2022/12/12 00:48:43;;;;;;;48.50;21.20;;;;;;;-0.55;46.74;101275.00;7393843;19;20082;-60
2022/12/12 00:51:16;;;;;;;52.17;22.45;;;;;;;-0.49;46.46;101275.84;7393596;19;20036;-60
2022/12/12 00:53:42;;;;;;;51.72;22.55;;;;;;;-0.64;46.49;101279.19;7393462;19;20006;-60
2022/12/12 00:56:07;;;;;;;48.42;21.55;;;;;;;-1.03;47.24;101279.31;7393349;19;20006;-61
2022/12/12 00:58:34;;;;;;;49.28;22.58;;;;;;;-1.03;47.24;101282.00;7393159;19;20002;-59
2022/12/12 01:01:05;;;;;;;51.08;24.20;;;;;;;-0.98;47.37;101287.41;7391940;19;20014;-60
2022/12/12 01:03:37;;;;;;;54.03;23.83;;;;;;;-0.59;45.92;101290.78;7392378;19;20022;-60
2022/12/12 01:06:02;;;;;;;57.67;24.23;;;;;;;-0.68;46.31;101296.84;7392425;19;20011;-61
2022/12/12 01:08:28;;;;;;;54.67;24.67;;;;;;;-0.80;46.30;101289.75;7389544;19;20022;-60
2022/12/12 01:10:54;;;;;;;54.90;24.40;;;;;;;-0.94;46.60;101285.88;7393181;19;20006;-59
2022/12/12 01:13:20;;;;;;;51.95;23.77;;;;;;;-1.19;46.98;101292.56;7392130;19;20002;-61
2022/12/12 01:15:46;;;;;;;46.15;21.67;;;;;;;-1.13;46.96;101299.56;7392230;19;20006;-60
2022/12/12 01:18:13;;;;;;;46.28;21.20;;;;;;;-1.29;47.28;101301.28;7390480;19;20023;-58
2022/12/12 01:20:40;;;;;;;47.88;22.20;;;;;;;-1.39;47.53;101300.31;7390934;19;19998;-60
2022/12/12 01:23:05;;;;;;;47.22;20.83;;;;;;;-1.13;47.34;101299.56;7391484;19;19998;-59
2022/12/12 01:25:31;;;;;;;48.55;21.45;;;;;;;-1.02;46.55;101299.72;7390439;19;20014;-59
2022/12/12 01:27:57;;;;;;;47.55;19.65;;;;;;;-1.18;46.81;101296.84;7392310;19;20013;-60
2022/12/12 01:30:24;;;;;;;45.17;21.45;;;;;;;-1.25;47.00;101298.91;7392463;19;20022;-60
2022/12/12 01:32:50;;;;;;;44.63;19.95;;;;;;;-1.21;46.95;101294.69;7391222;19;19995;-60
2022/12/12 01:35:16;;;;;;;48.53;21.05;;;;;;;-1.07;46.61;101305.03;7390087;19;20003;-61
2022/12/12 01:37:42;;;;;;;47.33;21.27;;;;;;;-1.07;46.61;101305.03;7392013;19;19998;-61
2022/12/12 01:40:19;;;;;;;48.65;20.58;;;;;;;-1.13;46.55;101304.94;7390924;19;20620;-60
2022/12/12 01:42:45;;;;;;;48.67;21.63;;;;;;;-1.27;46.93;101306.38;7391297;19;20014;-61
2022/12/12 01:45:49;;;;;;;48.38;21.52;;;;;;;-1.42;47.40;101308.88;7392012;19;20009;-60
2022/12/12 01:48:14;;;;;;;42.33;19.38;;;;;;;-1.45;47.26;101306.69;7391363;19;20023;-60
2022/12/12 01:50:42;;;;;;;47.17;20.90;;;;;;;-1.39;47.07;101305.66;7392068;19;20458;-59
2022/12/12 01:53:10;;;;;;;48.58;20.38;;;;;;;-1.39;47.03;101306.50;7391350;19;20002;-60
2022/12/12 01:55:35;;;;;;;48.60;21.20;;;;;;;-1.54;47.21;101304.44;7391868;19;20560;-59
2022/12/12 01:58:02;;;;;;;46.70;20.42;;;;;;;-1.86;47.80;101310.41;7391427;19;19999;-60
2022/12/12 02:00:28;;;;;;;46.35;20.15;;;;;;;-1.77;47.67;101315.34;7390124;19;20003;-59
2022/12/12 02:02:55;;;;;;;44.25;19.85;;;;;;;-1.56;47.46;101305.72;7390801;19;20542;-60
2022/12/12 02:05:29;;;;;;;47.47;21.17;;;;;;;-1.14;46.44;101316.72;7395153;19;20034;-61
2022/12/12 02:07:58;;;;;;;48.33;20.17;;;;;;;-1.15;46.30;101315.09;7388152;19;20463;-55
2022/12/12 02:10:24;;;;;;;48.45;20.80;;;;;;;-1.33;46.49;101312.72;7390532;19;20481;-56
2022/12/12 02:12:50;;;;;;;46.08;20.35;;;;;;;-1.29;46.48;101313.84;7390789;19;20006;-56
2022/12/12 02:15:16;;;;;;;45.80;20.92;;;;;;;-1.38;46.73;101304.63;7390598;19;20465;-56
2022/12/12 02:17:49;;;;;;;43.92;20.17;;;;;;;-1.07;46.27;101310.38;7386935;19;20002;-56
2022/12/12 02:20:51;;;;;;;49.55;22.35;;;;;;;-1.01;45.88;101315.53;7389393;19;20127;-57
2022/12/12 02:23:45;;;;;;;47.33;20.70;;;;;;;-1.10;45.92;101320.50;7390726;19;19999;-57
2022/12/12 02:26:41;;;;;;;47.22;21.48;;;;;;;-0.85;45.14;101313.84;7390036;19;20328;-56
2022/12/12 02:29:45;;;;;;;46.35;20.80;;;;;;;-1.02;45.06;101308.56;7391310;19;19991;-56
2022/12/12 02:32:42;;;;;;;50.13;20.50;;;;;;;-1.48;46.28;101313.31;7391136;19;19999;-56
2022/12/12 02:35:16;;;;;;;46.10;20.00;;;;;;;-1.57;46.74;101318.31;7390643;19;20113;-56
2022/12/12 02:37:54;;;;;;;45.70;20.48;;;;;;;-1.52;46.86;101325.59;7388802;19;20496;-56
2022/12/12 02:40:32;;;;;;;49.05;21.13;;;;;;;-1.62;46.84;101318.22;7389224;19;19995;-57
2022/12/12 02:43:04;;;;;;;47.40;20.83;;;;;;;-1.68;46.88;101319.22;7389759;19;20002;-56
2022/12/12 02:45:58;;;;;;;46.47;20.63;;;;;;;-1.76;47.04;101317.78;7389804;19;20370;-56
2022/12/12 02:48:34;;;;;;;44.15;20.13;;;;;;;-1.60;46.93;101320.66;7389620;19;20002;-56
2022/12/12 02:51:01;;;;;;;45.70;19.63;;;;;;;-1.27;46.09;101317.09;7390126;19;20002;-56
2022/12/12 02:53:27;;;;;;;49.17;21.02;;;;;;;-0.99;45.19;101317.94;7390916;19;20016;-56
2022/12/12 02:56:05;;;;;;;45.15;20.35;;;;;;;-1.32;45.44;101323.19;7389012;19;19994;-56
2022/12/12 02:58:33;;;;;;;46.90;19.58;;;;;;;-1.49;45.81;101322.44;7390000;19;19999;-56
2022/12/12 03:01:22;;;;;;;45.28;20.90;;;;;;;-1.57;46.10;101314.81;7394708;19;20002;-56
2022/12/12 03:10:08;;;;;;;46.85;19.33;;;;;;;-1.77;46.02;101320.69;7396360;19;20114;-56
2022/12/12 03:13:00;;;;;;;49.75;20.42;;;;;;;-1.64;46.04;101323.03;7394803;19;20006;-55
2022/12/12 03:15:38;;;;;;;50.50;20.10;;;;;;;-1.73;46.55;101319.94;7395718;19;20094;-55
2022/12/12 03:18:27;;;;;;;45.60;19.35;;;;;;;-1.57;45.64;101325.53;7393936;19;20007;-55
2022/12/12 03:21:26;;;;;;;46.15;21.55;;;;;;;-1.81;46.25;101328.41;7395634;19;20006;-54
2022/12/12 03:23:58;;;;;;;47.25;21.17;;;;;;;-1.24;45.05;101327.31;7395608;19;20006;-56
2022/12/12 03:26:30;;;;;;;43.00;19.42;;;;;;;-1.33;44.92;101326.13;7396405;19;20007;-55
2022/12/12 03:29:08;;;;;;;43.30;19.92;;;;;;;-1.53;44.60;101330.13;7396157;19;20021;-56
2022/12/12 03:31:38;;;;;;;51.17;20.48;;;;;;;-1.60;45.29;101328.69;7396478;19;20070;-56
2022/12/12 03:34:13;;;;;;;43.55;20.25;;;;;;;-1.57;45.26;101329.00;7394933;19;20052;-56
2022/12/12 03:36:58;;;;;;;43.05;19.08;;;;;;;-1.54;44.66;101327.72;7396459;19;20085;-56
2022/12/12 03:39:36;;;;;;;47.47;20.00;;;;;;;-1.87;45.32;101324.81;7395131;19;20006;-56
2022/12/12 03:42:09;;;;;;;46.03;21.00;;;;;;;-1.98;45.88;101325.72;7395411;19;20011;-56
2022/12/12 03:45:08;;;;;;;48.35;20.58;;;;;;;-1.83;46.11;101330.50;7394194;19;20016;-56
2022/12/12 03:47:45;;;;;;;46.03;20.10;;;;;;;-1.86;46.07;101329.13;7390967;19;20030;-56
2022/12/12 03:50:19;;;;;;;48.78;21.17;;;;;;;-1.85;45.97;101330.72;7396141;19;20013;-56
2022/12/12 03:53:00;;;;;;;48.45;20.73;;;;;;;-1.74;45.67;101339.75;7396268;19;20002;-56
2022/12/12 03:55:41;;;;;;;49.75;21.25;;;;;;;-2.06;46.46;101337.66;7395961;19;19999;-56
2022/12/12 03:58:16;;;;;;;43.33;19.55;;;;;;;-2.01;46.77;101333.41;7394332;19;20007;-56
2022/12/12 04:00:44;;;;;;;44.72;20.20;;;;;;;-1.75;46.08;101335.44;7394934;19;20021;-56
2022/12/12 04:03:23;;;;;;;43.10;19.33;;;;;;;-1.73;45.81;101340.53;7393083;19;20481;-56
2022/12/12 04:06:27;;;;;;;48.63;20.88;;;;;;;-1.62;45.71;101342.31;7393048;19;20023;-56
2022/12/12 04:15:01;;;;;;;44.97;19.23;;;;;;;-1.95;46.17;101343.97;7395900;19;20462;-56
2022/12/12 04:17:41;;;;;;;44.72;20.00;;;;;;;-1.90;45.50;101341.38;7392363;19;20529;-56
2022/12/12 04:23:17;;;;;;;42.78;19.52;;;;;;;-1.93;45.88;101338.38;7394085;19;20300;-56
2022/12/12 04:29:05;;;;;;;47.25;21.90;;;;;;;-1.94;45.32;101350.94;7392402;19;20177;-56
2022/12/12 04:31:36;;;;;;;42.22;18.88;;;;;;;-2.05;45.74;101349.94;7392932;19;20070;-55
2022/12/12 04:34:09;;;;;;;47.85;20.67;;;;;;;-2.13;46.00;101347.66;7391317;19;20007;-56
2022/12/12 04:36:36;;;;;;;47.88;20.40;;;;;;;-1.97;45.88;101346.06;7393784;19;20066;-56
2022/12/12 04:39:04;;;;;;;43.08;19.52;;;;;;;-1.80;45.72;101337.22;7391369;19;20002;-56
2022/12/12 04:41:33;;;;;;;46.78;20.73;;;;;;;-1.67;45.20;101345.72;7394820;19;20002;-56
2022/12/12 04:44:00;;;;;;;45.15;19.17;;;;;;;-1.81;45.24;101343.63;7393500;19;20010;-56
2022/12/12 04:46:29;;;;;;;44.53;18.85;;;;;;;-1.94;44.89;101345.59;7393755;19;20003;-56
2022/12/12 04:49:06;;;;;;;44.88;19.17;;;;;;;-2.00;45.51;101343.88;7393379;19;20014;-56
2022/12/12 04:51:36;;;;;;;45.55;19.63;;;;;;;-1.53;44.12;101335.47;7392328;19;20013;-56
2022/12/12 04:54:13;;;;;;;41.88;18.95;;;;;;;-1.54;44.17;101344.59;7392216;19;20469;-55
2022/12/12 04:56:42;;;;;;;42.35;19.80;;;;;;;-1.85;44.52;101341.44;7393049;19;20010;-56
2022/12/12 04:59:08;;;;;;;44.80;20.30;;;;;;;-2.12;45.29;101337.81;7392061;19;20034;-56
2022/12/12 05:02:03;;;;;;;44.20;20.20;;;;;;;-1.96;45.00;101341.53;7394310;19;20365;-56
2022/12/12 05:05:01;;;;;;;48.75;21.25;;;;;;;-1.80;44.53;101345.25;7392183;19;20033;-55
2022/12/12 05:07:39;;;;;;;48.75;21.10;;;;;;;-2.27;45.58;101349.06;7388616;19;20029;-56
2022/12/12 05:10:08;;;;;;;48.75;21.33;;;;;;;-1.68;44.25;101344.13;7391917;19;19994;-56
2022/12/12 05:12:39;;;;;;;49.88;20.30;;;;;;;-2.01;44.55;101347.63;7392656;19;20032;-56
2022/12/12 05:15:06;;;;;;;52.85;22.80;;;;;;;-2.24;45.23;101344.03;7391125;19;20027;-57
2022/12/12 05:17:40;;;;;;;52.13;21.73;;;;;;;-2.53;45.96;101351.25;7388570;19;20306;-55
2022/12/12 05:20:06;;;;;;;;;;;;;;;-2.25;44.75;101355.75;7390711;19;19990;-57
2022/12/12 05:22:32;;;;;;;51.88;21.30;;;;;;;-2.44;45.45;101343.69;7392092;19;19921;-57
2022/12/12 05:24:57;;;;;;;50.30;22.23;;;;;;;-2.42;45.53;101339.69;7391642;19;20322;-57
2022/12/12 05:27:23;;;;;;;52.67;22.48;;;;;;;-2.37;45.40;101352.34;7390400;19;20013;-57
2022/12/12 05:29:49;;;;;;;56.65;24.10;;;;;;;-2.44;45.63;101357.06;7393067;19;20002;-57
2022/12/12 05:32:14;;;;;;;53.65;22.95;;;;;;;-2.45;45.45;101356.22;7391471;19;20056;-56
2022/12/12 05:34:40;;;;;;;59.47;24.33;;;;;;;-2.71;45.53;101352.28;7392241;19;19994;-56
2022/12/12 05:37:06;;;;;;;53.30;22.65;;;;;;;-2.83;46.08;101351.47;7391073;19;20462;-57
2022/12/12 05:39:31;;;;;;;56.22;23.35;;;;;;;-2.65;45.78;101351.31;7389170;19;20299;-56
2022/12/12 05:41:57;;;;;;;55.65;24.08;;;;;;;-2.62;45.52;101350.84;7392033;19;20012;-56
2022/12/12 05:44:23;;;;;;;52.63;22.55;;;;;;;-2.86;45.72;101350.13;7392172;19;20002;-56
2022/12/12 05:46:49;;;;;;;60.13;23.67;;;;;;;-2.86;45.84;101349.28;7391794;19;20090;-56
2022/12/12 05:49:14;;;;;;;53.15;22.80;;;;;;;-3.08;46.29;101352.63;7390421;19;20647;-55
2022/12/12 05:51:40;;;;;;;53.15;22.45;;;;;;;-2.89;46.05;101349.78;7392100;19;20458;-56
2022/12/12 05:54:06;;;;;;;50.63;22.30;;;;;;;-2.68;45.77;101361.66;7390861;19;20054;-55
2022/12/12 05:56:32;;;;;;;49.22;21.52;;;;;;;-2.66;45.80;101360.38;7391239;19;20353;-56
2022/12/12 05:58:57;;;;;;;51.97;22.08;;;;;;;-2.61;45.81;101359.69;7390268;19;19991;-55
2022/12/12 06:01:23;;;;;;;49.17;22.08;;;;;;;-2.80;45.99;101367.03;7391796;19;20020;-55
2022/12/12 06:03:49;;;;;;;49.17;20.73;;;;;;;-2.50;45.47;101356.13;7390339;19;19999;-55
2022/12/12 06:06:14;;;;;;;48.80;23.00;;;;;;;-2.09;44.38;101364.88;7391274;19;20798;-55
2022/12/12 06:08:40;;;;;;;54.85;21.95;;;;;;;-1.91;43.71;101368.38;7388722;19;20489;-54
2022/12/12 06:11:07;;;;;;;50.38;22.67;;;;;;;-1.84;43.40;101366.34;7392091;19;20003;-55
2022/12/12 06:13:33;;;;;;;52.22;22.27;;;;;;;-2.32;44.60;101371.16;7390245;19;20010;-56
2022/12/12 06:16:04;;;;;;;49.80;21.38;;;;;;;-2.60;45.08;101372.78;7390891;19;20012;-54
2022/12/12 06:18:30;;;;;;;53.22;21.38;;;;;;;-2.75;45.57;101377.03;7391748;19;19998;-55
2022/12/12 06:21:10;;;;;;;48.38;22.48;;;;;;;-2.67;45.80;101372.13;7390989;19;20344;-56
2022/12/12 06:23:39;;;;;;;45.15;20.02;;;;;;;-2.36;45.36;101363.84;7390322;19;20098;-56
2022/12/12 06:26:14;;;;;;;52.63;21.83;;;;;;;-2.29;45.23;101368.00;7391362;19;20032;-56
2022/12/12 06:28:39;;;;;;;47.95;20.45;;;;;;;-2.25;45.31;101369.13;7390404;19;20003;-56
2022/12/12 06:31:06;;;;;;;52.95;23.50;;;;;;;-2.37;45.39;101376.41;7390142;19;20079;-56
2022/12/12 06:33:34;;;;;;;47.88;21.90;;;;;;;-1.95;44.43;101376.06;7390779;19;20010;-56
2022/12/12 06:36:12;;;;;;;55.13;23.60;;;;;;;-1.80;43.77;101380.06;7395277;19;19994;-56
2022/12/12 06:38:39;;;;;;;53.78;23.58;;;;;;;-1.71;43.50;101386.59;7397598;19;20003;-56
2022/12/12 06:41:11;;;;;;;46.03;19.63;;;;;;;-1.64;42.98;101387.28;7397877;19;20062;-56
2022/12/12 06:43:37;;;;;;;40.20;18.65;;;;;;;-1.83;43.11;101377.84;7397846;19;19995;-55
2022/12/12 06:46:06;;;;;;;43.88;19.45;;;;;;;-2.52;44.42;101384.97;7397256;19;20005;-54
2022/12/12 06:48:32;;;;;;;46.55;19.83;;;;;;;-2.71;45.01;101383.50;7397194;19;20006;-54
2022/12/12 06:50:59;;;;;;;40.58;18.23;;;;;;;-2.80;45.23;101381.22;7397227;19;20011;-55
2022/12/12 06:53:25;;;;;;;42.83;18.77;;;;;;;-2.96;45.55;101377.44;7394845;19;20002;-55
2022/12/12 06:55:51;;;;;;;45.03;17.73;;;;;;;-2.92;45.76;101376.97;7398540;19;20006;-55
2022/12/12 06:58:17;;;;;;;41.00;18.15;;;;;;;-2.52;44.79;101374.28;7393079;19;20358;-56
2022/12/12 07:00:42;;;;;;;37.80;18.55;;;;;;;-2.19;44.13;101386.09;7402180;19;20056;-55
2022/12/12 07:03:12;;;;;;;41.03;18.25;;;;;;;-2.26;43.53;101375.56;7394798;19;19998;-56
2022/12/12 07:05:37;;;;;;;36.05;17.23;;;;;;;-2.79;44.89;101377.50;7397482;19;20056;-56
2022/12/12 07:08:03;;;;;;;40.53;17.20;;;;;;;-3.12;45.66;101390.72;7394075;19;20490;-56
2022/12/12 07:10:30;;;;;;;39.08;17.38;;;;;;;-2.46;44.26;101388.53;7397711;19;20075;-56
2022/12/12 07:12:56;;;;;;;40.85;17.52;;;;;;;-2.14;43.36;101388.88;7397043;19;20007;-56
2022/12/12 07:15:21;;;;;;;43.40;18.58;;;;;;;-2.04;42.82;101381.00;7397591;19;20014;-56
2022/12/12 07:17:50;;;;;;;38.35;16.85;;;;;;;-2.52;43.69;101386.84;7395201;19;20035;-56
2022/12/12 07:20:16;;;;;;;37.80;17.42;;;;;;;-2.61;43.66;101387.22;7395884;19;19998;-56
2022/12/12 07:22:42;;;;;;;40.30;18.08;;;;;;;-2.70;44.18;101396.63;7396771;19;20029;-56
2022/12/12 07:25:08;;;;;;;40.83;17.52;;;;;;;-2.85;44.41;101396.34;7395206;19;20058;-54
2022/12/12 07:27:34;;;;;;;36.08;16.67;;;;;;;-3.21;45.36;101392.94;7395177;19;20029;-56
2022/12/12 07:29:59;;;;;;;34.88;16.65;;;;;;;-2.81;44.60;101397.50;7396623;19;20078;-56
2022/12/12 07:32:25;;;;;;;41.22;16.60;;;;;;;-2.67;44.52;101388.16;7395059;19;20334;-55
2022/12/12 07:34:51;;;;;;;37.85;16.83;;;;;;;-2.92;44.50;101393.78;7396748;19;20683;-55
2022/12/12 07:37:17;;;;;;;34.70;16.55;;;;;;;-3.10;45.00;101402.75;7394766;19;20105;-55
2022/12/12 07:39:42;;;;;;;39.00;17.17;;;;;;;-2.88;44.33;101394.13;7393953;19;20067;-56
2022/12/12 07:42:08;;;;;;;41.22;17.08;;;;;;;-3.06;45.02;101397.75;7394458;19;20058;-54
2022/12/12 07:44:34;;;;;;;46.67;22.13;;;;;;;-2.89;44.36;101397.88;7395446;19;20006;-55
2022/12/12 07:47:00;;;;;;;47.95;20.52;;;;;;;-3.07;44.90;101410.31;7393780;19;20003;-56
2022/12/12 07:49:27;;;;;;;48.83;21.55;;;;;;;-3.07;44.91;101407.63;7394498;19;20547;-55
2022/12/12 07:51:53;;;;;;;45.90;20.17;;;;;;;-3.07;44.95;101399.63;7396443;19;20473;-56
2022/12/12 07:54:19;;;;;;;40.35;17.85;;;;;;;-2.99;45.01;101404.63;7394575;19;19999;-56
2022/12/12 07:56:45;;;;;;;41.08;19.23;;;;;;;-2.98;45.32;101406.25;7395278;19;20343;-55
2022/12/12 07:59:11;;;;;;;45.65;19.23;;;;;;;-2.70;44.75;101407.34;7394486;19;20356;-56
2022/12/12 08:01:37;;;;;;;47.97;20.38;;;;;;;-2.46;44.48;101407.25;7393926;19;20011;-56
2022/12/12 08:04:03;;;;;;;48.13;22.75;;;;;;;-2.19;43.84;101418.19;7394672;19;20010;-55
2022/12/12 08:06:29;;;;;;;41.87;17.60;;;;;;;-2.12;43.50;101418.06;7391182;19;20021;-57
2022/12/12 08:08:55;;;;;;;43.83;18.88;;;;;;;-2.15;43.88;101413.97;7386745;19;20251;-58
2022/12/12 08:11:23;;;;;;;42.75;19.50;;;;;;;-2.43;44.53;101409.44;7395122;19;20392;-58
2022/12/12 08:13:50;;;;;;;49.05;18.88;;;;;;;-2.03;44.19;101405.88;7393914;19;20002;-59
2022/12/12 08:16:25;;;;;;;40.17;18.25;;;;;;;-1.64;43.49;101410.53;7393566;19;20033;-57
2022/12/12 08:18:55;;;;;;;41.05;18.55;;;;;;;-1.71;43.23;101411.53;7393707;19;20008;-58
2022/12/12 08:21:21;;;;;;;45.83;20.92;;;;;;;-1.65;43.31;101417.75;7394905;19;19998;-58
2022/12/12 08:23:47;;;;;;;41.90;17.65;;;;;;;-1.44;42.97;101412.72;7394083;19;20003;-59
2022/12/12 08:26:14;;;;;;;48.53;20.20;;;;;;;-1.55;43.23;101422.47;7395340;19;20387;-58
2022/12/12 08:28:42;;;;;;;62.97;27.58;;;;;;;-1.51;43.18;101418.25;7392053;19;19998;-58
2022/12/12 08:31:08;;;;;;;41.03;18.35;;;;;;;-1.45;43.04;101417.28;7394547;19;20355;-58
2022/12/12 08:33:34;;;;;;;42.33;19.40;;;;;;;-1.26;42.70;101423.16;7394171;19;20443;-58
2022/12/12 08:36:09;;;;;;;44.60;18.88;;;;;;;-1.76;43.79;101421.31;7394513;19;20006;-58
2022/12/12 08:38:34;;;;;;;45.58;20.27;;;;;;;-1.56;43.33;101432.38;7391688;19;20016;-57
2022/12/12 08:41:02;;;;;;;42.95;19.55;;;;;;;-1.93;44.21;101437.38;7394177;19;20010;-58
2022/12/12 08:43:27;;;;;;;43.17;19.02;;;;;;;-1.62;44.10;101428.00;7392967;19;20003;-58
2022/12/12 08:46:00;;;;;;;47.10;19.35;;;;;;;-1.35;43.55;101430.00;7393429;19;19995;-57
2022/12/12 08:48:25;;;;;;;49.58;21.63;;;;;;;-1.56;43.76;101431.56;7391376;19;20377;-57
2022/12/12 08:50:52;;;;;;;42.80;20.65;;;;;;;-1.62;44.26;101433.34;7393336;19;19999;-58
2022/12/12 08:53:17;;;;;;;45.95;19.60;;;;;;;-1.67;44.32;101425.22;7393624;19;19995;-58
2022/12/12 08:55:43;;;;;;;44.97;20.48;;;;;;;-1.79;44.78;101428.00;7391603;19;19994;-57
2022/12/12 08:58:09;;;;;;;43.03;19.70;;;;;;;-1.97;45.27;101423.66;7388554;19;19999;-57
2022/12/12 09:00:35;;;;;;;44.40;19.42;;;;;;;-1.63;44.91;101426.34;7391825;19;19998;-58
2022/12/12 09:03:01;;;;;;;45.55;19.40;;;;;;;-1.65;44.98;101420.44;7393148;19;20003;-58
2022/12/12 09:05:26;;;;;;;42.75;19.35;;;;;;;-1.52;45.10;101425.47;7391420;19;20330;-59
2022/12/12 09:07:52;;;;;;;48.13;20.42;;;;;;;-1.13;44.35;101430.84;7390986;19;20007;-58
2022/12/12 09:10:18;;;;;;;49.95;22.92;;;;;;;-1.33;44.50;101431.38;7391004;19;20003;-58
2022/12/12 09:12:44;;;;;;;46.47;21.88;;;;;;;-1.38;45.05;101441.22;7390870;19;20008;-58
2022/12/12 09:15:10;;;;;;;51.22;22.20;;;;;;;-1.32;45.19;101446.41;7391924;19;20363;-58
2022/12/12 09:17:35;;;;;;;49.95;21.58;;;;;;;-1.15;45.03;101443.69;7391582;19;20009;-58
2022/12/12 09:20:02;;;;;;;53.28;22.88;;;;;;;-1.02;45.16;101444.41;7391184;19;20391;-58
2022/12/12 09:22:28;;;;;;;56.47;22.85;;;;;;;-1.24;45.70;101444.34;7391812;19;20009;-57
2022/12/12 09:24:53;;;;;;;50.60;22.70;;;;;;;-1.30;46.07;101446.16;7392688;19;20421;-58
2022/12/12 09:27:19;;;;;;;50.60;22.80;;;;;;;-1.15;46.03;101441.00;7391305;19;20200;-57
2022/12/12 09:29:45;;;;;;;48.13;22.13;;;;;;;-0.99;45.90;101449.25;7392259;19;20320;-58
2022/12/12 09:32:10;;;;;;;50.47;23.13;;;;;;;-0.79;45.50;101443.34;7391937;19;20036;-59
2022/12/12 09:34:37;;;;;;;54.63;23.63;;;;;;;-0.63;45.36;101439.00;7390245;19;20015;-59
2022/12/12 09:37:03;;;;;;;52.35;22.67;;;;;;;-0.62;45.55;101446.00;7390881;19;20010;-59
2022/12/12 09:39:28;;;;;;;48.78;22.42;;;;;;;-0.30;44.88;101442.63;7389927;19;20005;-56
2022/12/12 09:41:54;;;;;;;49.00;22.73;;;;;;;-0.26;44.87;101439.16;7391986;19;20003;-57
2022/12/12 09:44:21;;;;;;;55.00;22.92;;;;;;;-0.34;45.15;101442.31;7392103;19;20058;-60
2022/12/12 09:46:54;;;;;;;52.85;22.80;;;;;;;-0.18;44.99;101448.63;7391469;19;20014;-59
2022/12/12 09:49:33;;;;;;;49.72;23.33;;;;;;;-0.40;45.77;101448.66;7392006;19;20062;-58
2022/12/12 09:52:00;;;;;;;54.13;23.35;;;;;;;-0.44;46.17;101456.41;7391626;19;20035;-59
2022/12/12 09:54:27;;;;;;;54.47;22.48;;;;;;;-0.05;45.59;101447.44;7393423;19;19998;-59
2022/12/12 09:57:14;;;;;;;53.45;23.73;;;;;;;0.09;45.36;101453.19;7393852;19;20007;-59
2022/12/12 09:59:50;;;;;;;54.03;25.52;;;;;;;-0.16;45.77;101457.22;7392784;19;20062;-59
2022/12/12 10:02:37;;;;;;;50.63;24.08;;;;;;;-0.01;45.74;101462.78;7395481;19;20003;-56
2022/12/12 10:05:28;;;;;;;48.38;23.30;;;;;;;0.15;45.84;101449.50;7391044;19;20030;-57
2022/12/12 10:08:12;;;;;;;53.13;24.30;;;;;;;0.34;45.09;101437.28;7388523;19;20007;-58
2022/12/12 10:10:44;;;;;;;51.58;23.92;;;;;;;0.17;45.59;101442.00;7389007;19;20017;-58
2022/12/12 10:13:18;;;;;;;48.67;23.67;;;;;;;0.47;45.39;101451.38;7390517;19;20006;-57
2022/12/12 10:15:48;;;;;;;52.00;23.65;;;;;;;0.64;45.01;101451.22;7394419;19;19999;-58
2022/12/12 10:18:22;;;;;;;51.92;23.33;;;;;;;0.57;45.17;101451.44;7389725;19;20006;-58
2022/12/12 10:20:51;;;;;;;53.75;23.75;;;;;;;0.38;45.57;101443.78;7388502;19;20002;-59
2022/12/12 10:23:37;;;;;;;54.40;23.33;;;;;;;0.15;46.71;101442.25;7391285;19;20003;-58
2022/12/12 10:26:17;;;;;;;54.50;23.73;;;;;;;0.32;46.50;101442.13;7389192;19;19999;-58
2022/12/12 10:28:43;;;;;;;52.10;23.08;;;;;;;0.57;46.11;101449.56;7388817;19;20374;-58
2022/12/12 10:31:27;;;;;;;53.83;24.23;;;;;;;0.41;46.25;101441.66;7390056;19;20217;-59
2022/12/12 10:34:25;;;;;;;54.63;23.60;;;;;;;0.48;46.66;101450.28;7389679;19;20023;-58
2022/12/12 10:37:00;;;;;;;53.22;23.55;;;;;;;0.49;46.51;101446.56;7389252;19;20081;-58
2022/12/12 10:39:50;;;;;;;46.65;21.42;;;;;;;0.55;46.76;101440.97;7388205;19;20079;-59
2022/12/12 10:42:39;;;;;;;50.10;22.10;;;;;;;0.80;46.52;101446.75;7389635;19;20025;-59
2022/12/12 10:45:31;;;;;;;53.78;23.92;;;;;;;0.96;46.13;101444.97;7391185;19;20003;-58
2022/12/12 10:47:57;;;;;;;53.40;23.77;;;;;;;0.94;46.00;101437.97;7388938;19;20337;-58
2022/12/12 10:50:29;;;;;;;54.67;25.58;;;;;;;0.95;46.26;101436.13;7390460;19;20038;-58
2022/12/12 10:52:55;;;;;;;54.55;23.55;;;;;;;1.18;45.96;101428.72;7388952;19;19999;-57
2022/12/12 10:55:40;;;;;;;48.80;24.10;;;;;;;1.26;45.75;101428.22;7390025;19;20436;-57
2022/12/12 10:58:06;;;;;;;48.97;23.02;;;;;;;1.34;45.60;101433.09;7387135;19;19998;-57
2022/12/12 11:00:37;;;;;;;48.42;22.35;;;;;;;1.20;46.10;101431.94;7387878;19;20003;-59
2022/12/12 11:03:25;;;;;;;47.53;22.08;;;;;;;1.24;46.27;101423.09;7388479;19;20036;-57
2022/12/12 11:05:53;;;;;;;47.17;22.20;;;;;;;1.38;45.80;101428.81;7389450;19;19994;-58
2022/12/12 11:08:24;;;;;;;39.83;17.42;;;;;;;1.47;45.62;101432.59;7385397;19;20018;-58
2022/12/12 11:11:04;;;;;;;32.72;14.30;;;;;;;1.64;44.61;101436.97;7389870;19;20031;-57
2022/12/12 11:13:30;;;;;;;33.53;14.40;;;;;;;1.57;44.46;101429.16;7388030;19;20017;-57
2022/12/12 11:16:07;;;;;;;30.58;13.13;;;;;;;1.59;44.19;101428.88;7389100;19;20015;-58
2022/12/12 11:18:33;;;;;;;30.92;12.70;;;;;;;1.71;43.65;101426.75;7386710;19;20013;-58
2022/12/12 11:21:08;;;;;;;30.23;13.43;;;;;;;1.70;43.87;101429.69;7391058;19;20006;-58
2022/12/12 11:23:38;;;;;;;31.73;12.75;;;;;;;1.65;44.13;101427.84;7395595;19;19995;-58
2022/12/12 11:26:11;;;;;;;28.08;12.07;;;;;;;1.74;43.75;101423.53;7396465;19;20013;-57
2022/12/12 11:28:39;;;;;;;27.65;10.48;;;;;;;1.72;43.49;101425.69;7392221;19;20470;-58
2022/12/12 11:31:10;;;;;;;30.08;11.65;;;;;;;1.87;43.18;101419.53;7394260;19;20010;-58
2022/12/12 11:33:52;;;;;;;26.75;11.20;;;;;;;1.85;42.53;101417.09;7395161;19;19999;-58
2022/12/12 11:36:22;;;;;;;28.27;11.38;;;;;;;1.70;43.25;101418.94;7396167;19;20020;-58
2022/12/12 11:38:54;;;;;;;25.05;11.35;;;;;;;1.11;44.21;101412.81;7395502;19;20429;-58
2022/12/12 11:41:21;;;;;;;28.60;12.15;;;;;;;0.95;44.68;101414.59;7393991;19;20474;-58
2022/12/12 11:43:46;;;;;;;30.33;13.23;;;;;;;0.91;44.89;101419.72;7395591;19;20002;-58
2022/12/12 11:46:12;;;;;;;27.80;12.95;;;;;;;0.90;44.98;101414.59;7395591;19;20022;-58